Aviation Digital Data Service (ADDS)

Output produced by METARs form (0141 UTC 22 February 2019)
found at http://www.aviationweather.gov/metar/data/
 
METAR text: NGTA 220100Z 9999 SCT020 BKN040 BKN100 29/25 Q1008
Conditions at: NGTA (TARAWA KIRIBATI , FJ) observed 0100 UTC 22 February 2019
Temperature: 29.0°C (84°F)
Dewpoint: 25.0°C (77°F) [RH = 79%]
Pressure (altimeter): 29.76 inches Hg (1008.0 mb)
Winds: missing
Visibility: 6 or more miles (10+ km)
Ceiling: 4000 feet AGL
Clouds: scattered clouds at 2000 feet AGL
broken clouds at 4000 feet AGL
broken clouds at 10000 feet AGL
Weather: no significant weather observed at this time

METAR text: NGTA 220000Z 36008KT 9999 FEW018TCU SCT040 BKN100 29/25 Q1009
Conditions at: NGTA (TARAWA KIRIBATI , FJ) observed 0000 UTC 22 February 2019
Temperature: 29.0°C (84°F)
Dewpoint: 25.0°C (77°F) [RH = 79%]
Pressure (altimeter): 29.79 inches Hg (1009.0 mb)
Winds: from the N (360 degrees) at 9 MPH (8 knots; 4.1 m/s)
Visibility: 6 or more miles (10+ km)
Ceiling: 10000 feet AGL
Clouds: few clouds at 1800 feet AGL
scattered clouds at 4000 feet AGL
broken clouds at 10000 feet AGL
Weather: no significant weather observed at this time

METAR text: NGTA 212300Z 35005KT 9999 FEW020 SCT040 BKN100 28/24 Q1009
Conditions at: NGTA (TARAWA KIRIBATI , FJ) observed 2300 UTC 21 February 2019
Temperature: 28.0°C (82°F)
Dewpoint: 24.0°C (75°F) [RH = 79%]
Pressure (altimeter): 29.79 inches Hg (1009.0 mb)
Winds: from the N (350 degrees) at 6 MPH (5 knots; 2.6 m/s)
Visibility: 6 or more miles (10+ km)
Ceiling: 10000 feet AGL
Clouds: few clouds at 2000 feet AGL
scattered clouds at 4000 feet AGL
broken clouds at 10000 feet AGL
Weather: no significant weather observed at this time

METAR text: NGTA 212200Z 36007KT 9999 FEW018TCU SCT020 OVC100 29/24 Q1010
Conditions at: NGTA (TARAWA KIRIBATI , FJ) observed 2200 UTC 21 February 2019
Temperature: 29.0°C (84°F)
Dewpoint: 24.0°C (75°F) [RH = 74%]
Pressure (altimeter): 29.82 inches Hg (1010.0 mb)
Winds: from the N (360 degrees) at 8 MPH (7 knots; 3.6 m/s)
Visibility: 6 or more miles (10+ km)
Ceiling: 10000 feet AGL
Clouds: few clouds at 1800 feet AGL
scattered clouds at 2000 feet AGL
overcast cloud deck at 10000 feet AGL
Weather: no significant weather observed at this time

METAR text: NGTA 212100Z 36008KT 9999 VCSH FEW016CB SCT040 OVC300 27/26 Q1010
Conditions at: NGTA (TARAWA KIRIBATI , FJ) observed 2100 UTC 21 February 2019
Temperature: 27.0°C (81°F)
Dewpoint: 26.0°C (79°F) [RH = 94%]
Pressure (altimeter): 29.82 inches Hg (1010.0 mb)
Winds: from the N (360 degrees) at 9 MPH (8 knots; 4.1 m/s)
Visibility: 6 or more miles (10+ km)
Ceiling: 30000 feet AGL
Clouds: few clouds at 1600 feet AGL
scattered clouds at 4000 feet AGL
overcast cloud deck at 30000 feet AGL
Weather: VCSH  (showers in vicinity)

METAR text: NGTA 212000Z 35008KT 9999 VCSH SCT018TCU BKN040 OVC100 27/24 Q1009
Conditions at: NGTA (TARAWA KIRIBATI , FJ) observed 2000 UTC 21 February 2019
Temperature: 27.0°C (81°F)
Dewpoint: 24.0°C (75°F) [RH = 84%]
Pressure (altimeter): 29.79 inches Hg (1009.0 mb)
Winds: from the N (350 degrees) at 9 MPH (8 knots; 4.1 m/s)
Visibility: 6 or more miles (10+ km)
Ceiling: 4000 feet AGL
Clouds: scattered clouds at 1800 feet AGL
broken clouds at 4000 feet AGL
overcast cloud deck at 10000 feet AGL
Weather: VCSH  (showers in vicinity)

METAR text: NGTA 211900Z 33009KT 9999 VCSH FEW016CB SCT040 OVC100 27/24 Q1008
Conditions at: NGTA (TARAWA KIRIBATI , FJ) observed 1900 UTC 21 February 2019
Temperature: 27.0°C (81°F)
Dewpoint: 24.0°C (75°F) [RH = 84%]
Pressure (altimeter): 29.76 inches Hg (1008.0 mb)
Winds: from the NNW (330 degrees) at 10 MPH (9 knots; 4.6 m/s)
Visibility: 6 or more miles (10+ km)
Ceiling: 10000 feet AGL
Clouds: few clouds at 1600 feet AGL
scattered clouds at 4000 feet AGL
overcast cloud deck at 10000 feet AGL
Weather: VCSH  (showers in vicinity)

METAR text: NGTA 211800Z 32009KT 9999 VCSH FEW016CB SCT040 OVC100 27/25 Q1008
Conditions at: NGTA (TARAWA KIRIBATI , FJ) observed 1800 UTC 21 February 2019
Temperature: 27.0°C (81°F)
Dewpoint: 25.0°C (77°F) [RH = 89%]
Pressure (altimeter): 29.76 inches Hg (1008.0 mb)
Winds: from the NW (320 degrees) at 10 MPH (9 knots; 4.6 m/s)
Visibility: 6 or more miles (10+ km)
Ceiling: 10000 feet AGL
Clouds: few clouds at 1600 feet AGL
scattered clouds at 4000 feet AGL
overcast cloud deck at 10000 feet AGL
Weather: VCSH  (showers in vicinity)

METAR text: NGTA 211700Z 31010KT 9999 FEW019 SCT040 OVC100 27/24 Q1007
Conditions at: NGTA (TARAWA KIRIBATI , FJ) observed 1700 UTC 21 February 2019
Temperature: 27.0°C (81°F)
Dewpoint: 24.0°C (75°F) [RH = 84%]
Pressure (altimeter): 29.73 inches Hg (1007.0 mb)
Winds: from the NW (310 degrees) at 12 MPH (10 knots; 5.1 m/s)
Visibility: 6 or more miles (10+ km)
Ceiling: 10000 feet AGL
Clouds: few clouds at 1900 feet AGL
scattered clouds at 4000 feet AGL
overcast cloud deck at 10000 feet AGL
Weather: no significant weather observed at this time

METAR text: NGTA 211600Z 31008KT 9999 FEW019 SCT040 OVC100 26/24 Q1007
Conditions at: NGTA (TARAWA KIRIBATI , FJ) observed 1600 UTC 21 February 2019
Temperature: 26.0°C (79°F)
Dewpoint: 24.0°C (75°F) [RH = 89%]
Pressure (altimeter): 29.73 inches Hg (1007.0 mb)
Winds: from the NW (310 degrees) at 9 MPH (8 knots; 4.1 m/s)
Visibility: 6 or more miles (10+ km)
Ceiling: 10000 feet AGL
Clouds: few clouds at 1900 feet AGL
scattered clouds at 4000 feet AGL
overcast cloud deck at 10000 feet AGL
Weather: no significant weather observed at this time

METAR text: NGTA 211500Z 31006KT 9999 -SHRA FEW017TCU SCT040 OVC100 25/24 Q1008
Conditions at: NGTA (TARAWA KIRIBATI , FJ) observed 1500 UTC 21 February 2019
Temperature: 25.0°C (77°F)
Dewpoint: 24.0°C (75°F) [RH = 94%]
Pressure (altimeter): 29.76 inches Hg (1008.0 mb)
Winds: from the NW (310 degrees) at 7 MPH (6 knots; 3.1 m/s)
Visibility: 6 or more miles (10+ km)
Ceiling: 10000 feet AGL
Clouds: few clouds at 1700 feet AGL
scattered clouds at 4000 feet AGL
overcast cloud deck at 10000 feet AGL
Weather: -SHRA  (light rain showers)

METAR text: NGTA 211400Z 30007KT 9999 VCSH SCT017TCU SCT040 OVC100 26/25 Q1009
Conditions at: NGTA (TARAWA KIRIBATI , FJ) observed 1400 UTC 21 February 2019
Temperature: 26.0°C (79°F)
Dewpoint: 25.0°C (77°F) [RH = 94%]
Pressure (altimeter): 29.79 inches Hg (1009.0 mb)
Winds: from the WNW (300 degrees) at 8 MPH (7 knots; 3.6 m/s)
Visibility: 6 or more miles (10+ km)
Ceiling: 10000 feet AGL
Clouds: scattered clouds at 1700 feet AGL
scattered clouds at 4000 feet AGL
overcast cloud deck at 10000 feet AGL
Weather: VCSH  (showers in vicinity)

METAR text: NGTA 211300Z 30009KT 9999 VCSH SCT017TCU OVC100 26/25 Q1009
Conditions at: NGTA (TARAWA KIRIBATI , FJ) observed 1300 UTC 21 February 2019
Temperature: 26.0°C (79°F)
Dewpoint: 25.0°C (77°F) [RH = 94%]
Pressure (altimeter): 29.79 inches Hg (1009.0 mb)
Winds: from the WNW (300 degrees) at 10 MPH (9 knots; 4.6 m/s)
Visibility: 6 or more miles (10+ km)
Ceiling: 10000 feet AGL
Clouds: scattered clouds at 1700 feet AGL
overcast cloud deck at 10000 feet AGL
Weather: VCSH  (showers in vicinity)

METAR text: NGTA 211200Z 29008KT 9999 VCSH FEW018TCU SCT040 OVC090 26/25 Q1010
Conditions at: NGTA (TARAWA KIRIBATI , FJ) observed 1200 UTC 21 February 2019
Temperature: 26.0°C (79°F)
Dewpoint: 25.0°C (77°F) [RH = 94%]
Pressure (altimeter): 29.82 inches Hg (1010.0 mb)
Winds: from the WNW (290 degrees) at 9 MPH (8 knots; 4.1 m/s)
Visibility: 6 or more miles (10+ km)
Ceiling: 9000 feet AGL
Clouds: few clouds at 1800 feet AGL
scattered clouds at 4000 feet AGL
overcast cloud deck at 9000 feet AGL
Weather: VCSH  (showers in vicinity)

METAR text: NGTA 211100Z 30005KT 9000 -RA SCT017 SCT040 OVC090 26/25 Q1010
Conditions at: NGTA (TARAWA KIRIBATI , FJ) observed 1100 UTC 21 February 2019
Temperature: 26.0°C (79°F)
Dewpoint: 25.0°C (77°F) [RH = 94%]
Pressure (altimeter): 29.82 inches Hg (1010.0 mb)
Winds: from the WNW (300 degrees) at 6 MPH (5 knots; 2.6 m/s)
Visibility: 6 miles ( 9 km)
Ceiling: 9000 feet AGL
Clouds: scattered clouds at 1700 feet AGL
scattered clouds at 4000 feet AGL
overcast cloud deck at 9000 feet AGL
Weather: -RA  (light rain)

METAR text: NGTA 211000Z 28009KT 8000 -RA FEW018 SCT040 OVC100 27/26 Q1010
Conditions at: NGTA (TARAWA KIRIBATI , FJ) observed 1000 UTC 21 February 2019
Temperature: 27.0°C (81°F)
Dewpoint: 26.0°C (79°F) [RH = 94%]
Pressure (altimeter): 29.82 inches Hg (1010.0 mb)
Winds: from the W (280 degrees) at 10 MPH (9 knots; 4.6 m/s)
Visibility: 5 miles ( 8 km)
Ceiling: 10000 feet AGL
Clouds: few clouds at 1800 feet AGL
scattered clouds at 4000 feet AGL
overcast cloud deck at 10000 feet AGL
Weather: -RA  (light rain)

METAR text: NGTA 210900Z 27016KT 8000 -RA FEW016 SCT040 OVC080 26/26 Q1009
Conditions at: NGTA (TARAWA KIRIBATI , FJ) observed 0900 UTC 21 February 2019
Temperature: 26.0°C (79°F)
Dewpoint: 26.0°C (79°F) [RH = 100%]
Pressure (altimeter): 29.79 inches Hg (1009.0 mb)
Winds: from the W (270 degrees) at 18 MPH (16 knots; 8.2 m/s)
Visibility: 5 miles ( 8 km)
Ceiling: 8000 feet AGL
Clouds: few clouds at 1600 feet AGL
scattered clouds at 4000 feet AGL
overcast cloud deck at 8000 feet AGL
Weather: -RA  (light rain)

METAR text: NGTA 210800Z 25007KT 8000 -RA FEW017 SCT040 OVC080 26/25 Q1010
Conditions at: NGTA (TARAWA KIRIBATI , FJ) observed 0800 UTC 21 February 2019
Temperature: 26.0°C (79°F)
Dewpoint: 25.0°C (77°F) [RH = 94%]
Pressure (altimeter): 29.82 inches Hg (1010.0 mb)
Winds: from the WSW (250 degrees) at 8 MPH (7 knots; 3.6 m/s)
Visibility: 5 miles ( 8 km)
Ceiling: 8000 feet AGL
Clouds: few clouds at 1700 feet AGL
scattered clouds at 4000 feet AGL
overcast cloud deck at 8000 feet AGL
Weather: -RA  (light rain)

METAR text: NGTA 210700Z 24010KT 8000 -RA FEW017 SCT040 OVC080 25/25 Q1008
Conditions at: NGTA (TARAWA KIRIBATI , FJ) observed 0700 UTC 21 February 2019
Temperature: 25.0°C (77°F)
Dewpoint: 25.0°C (77°F) [RH = 100%]
Pressure (altimeter): 29.76 inches Hg (1008.0 mb)
Winds: from the WSW (240 degrees) at 12 MPH (10 knots; 5.1 m/s)
Visibility: 5 miles ( 8 km)
Ceiling: 8000 feet AGL
Clouds: few clouds at 1700 feet AGL
scattered clouds at 4000 feet AGL
overcast cloud deck at 8000 feet AGL
Weather: -RA  (light rain)

METAR text: NGTA 210600Z 25017KT 8000 -RA FEW017TCU SCT040 OVC080 25/25 Q1008
Conditions at: NGTA (TARAWA KIRIBATI , FJ) observed 0600 UTC 21 February 2019
Temperature: 25.0°C (77°F)
Dewpoint: 25.0°C (77°F) [RH = 100%]
Pressure (altimeter): 29.76 inches Hg (1008.0 mb)
Winds: from the WSW (250 degrees) at 20 MPH (17 knots; 8.7 m/s)
Visibility: 5 miles ( 8 km)
Ceiling: 8000 feet AGL
Clouds: few clouds at 1700 feet AGL
scattered clouds at 4000 feet AGL
overcast cloud deck at 8000 feet AGL
Weather: -RA  (light rain)

METAR text: NGTA 210500Z 25019G26KT 9999 8000W -SHRA FEW019 OVC080 25/24 Q1007 RERA RMK RR 3.0MM
Conditions at: NGTA (TARAWA KIRIBATI , FJ) observed 0500 UTC 21 February 2019
Temperature: 25.0°C (77°F)
Dewpoint: 24.0°C (75°F) [RH = 94%]
Pressure (altimeter): 29.73 inches Hg (1007.0 mb)
Winds: from the WSW (250 degrees) at 22 MPH (19 knots; 9.8 m/s)
gusting to 30 MPH (26 knots; 13.4 m/s)
Visibility: 6 or more miles (10+ km)
Ceiling: 8000 feet AGL
Clouds: few clouds at 1900 feet AGL
overcast cloud deck at 8000 feet AGL
Weather: -SHRA  (light rain showers)

METAR text: NGTA 210430Z 25021G26KT 7000 SHRA FEW019 OVC080 25/24 Q1007 RERA
Conditions at: NGTA (TARAWA KIRIBATI , FJ) observed 0430 UTC 21 February 2019
Temperature: 25.0°C (77°F)
Dewpoint: 24.0°C (75°F) [RH = 94%]
Pressure (altimeter): 29.73 inches Hg (1007.0 mb)
Winds: from the WSW (250 degrees) at 24 MPH (21 knots; 10.8 m/s)
gusting to 30 MPH (26 knots; 13.4 m/s)
Visibility: 4 miles ( 7 km)
Ceiling: 8000 feet AGL
Clouds: few clouds at 1900 feet AGL
overcast cloud deck at 8000 feet AGL
Weather: SHRA  (rain showers)

METAR text: NGTA 210400Z 24015G22KT 6000 SHRA SCT018TCU OVC070 25/24 Q1007 RERA RMK RR 10.5MM
Conditions at: NGTA (TARAWA KIRIBATI , FJ) observed 0400 UTC 21 February 2019
Temperature: 25.0°C (77°F)
Dewpoint: 24.0°C (75°F) [RH = 94%]
Pressure (altimeter): 29.73 inches Hg (1007.0 mb)
Winds: from the WSW (240 degrees) at 17 MPH (15 knots; 7.7 m/s)
gusting to 25 MPH (22 knots; 11.3 m/s)
Visibility: 4 miles ( 6 km)
Ceiling: 7000 feet AGL
Clouds: scattered clouds at 1800 feet AGL
overcast cloud deck at 7000 feet AGL
Weather: SHRA  (rain showers)

METAR text: NGTA 210330Z 24009G15KT 2500 -RA FEW016CB FEW018TCU SCT035 OVC070 24/24 Q1008 RERA RMK RR 5.0MM
Conditions at: NGTA (TARAWA KIRIBATI , FJ) observed 0330 UTC 21 February 2019
Temperature: 24.0°C (75°F)
Dewpoint: 24.0°C (75°F) [RH = 100%]
Pressure (altimeter): 29.76 inches Hg (1008.0 mb)
Winds: from the WSW (240 degrees) at 10 MPH (9 knots; 4.6 m/s)
gusting to 17 MPH (15 knots; 7.7 m/s)
Visibility: 1.55 miles (2.49 km)
Ceiling: 7000 feet AGL
Clouds: few clouds at 1600 feet AGL
few clouds at 1800 feet AGL
scattered clouds at 3500 feet AGL
overcast cloud deck at 7000 feet AGL
Weather: -RA  (light rain)

METAR text: NGTA 210300Z 15008KT 9999 -SHRA FEW017TCU OVC080 25/24 Q1008 RMK RR 4.7MM
Conditions at: NGTA (TARAWA KIRIBATI , FJ) observed 0300 UTC 21 February 2019
Temperature: 25.0°C (77°F)
Dewpoint: 24.0°C (75°F) [RH = 94%]
Pressure (altimeter): 29.76 inches Hg (1008.0 mb)
Winds: from the SSE (150 degrees) at 9 MPH (8 knots; 4.1 m/s)
Visibility: 6 or more miles (10+ km)
Ceiling: 8000 feet AGL
Clouds: few clouds at 1700 feet AGL
overcast cloud deck at 8000 feet AGL
Weather: -SHRA  (light rain showers)

METAR text: NGTA 210240Z 16011G19KT 9999 -SHRA FEW016CB OVC080 26/25 Q1008 RERA
Conditions at: NGTA (TARAWA KIRIBATI , FJ) observed 0240 UTC 21 February 2019
Temperature: 26.0°C (79°F)
Dewpoint: 25.0°C (77°F) [RH = 94%]
Pressure (altimeter): 29.76 inches Hg (1008.0 mb)
Winds: from the SSE (160 degrees) at 13 MPH (11 knots; 5.7 m/s)
gusting to 22 MPH (19 knots; 9.8 m/s)
Visibility: 6 or more miles (10+ km)
Ceiling: 8000 feet AGL
Clouds: few clouds at 1600 feet AGL
overcast cloud deck at 8000 feet AGL
Weather: -SHRA  (light rain showers)

METAR text: NGTA 210210Z 18013G19KT 0800 RA SCT010CB OVC070 26/25 Q1008 RETS RMK RR 8.0MM
Conditions at: NGTA (TARAWA KIRIBATI , FJ) observed 0210 UTC 21 February 2019
Temperature: 26.0°C (79°F)
Dewpoint: 25.0°C (77°F) [RH = 94%]
Pressure (altimeter): 29.76 inches Hg (1008.0 mb)
Winds: from the S (180 degrees) at 15 MPH (13 knots; 6.7 m/s)
gusting to 22 MPH (19 knots; 9.8 m/s)
Visibility: 0.50 miles (0.80 km)
Ceiling: 7000 feet AGL
Clouds: scattered clouds at 1000 feet AGL
overcast cloud deck at 7000 feet AGL
Weather: RA  (moderate rain)

METAR text: NGTA 210200Z 16005G13KT 1000 TSRA SCT015CB OVC070 26/25 Q1008 RERA
Conditions at: NGTA (TARAWA KIRIBATI , FJ) observed 0200 UTC 21 February 2019
Temperature: 26.0°C (79°F)
Dewpoint: 25.0°C (77°F) [RH = 94%]
Pressure (altimeter): 29.76 inches Hg (1008.0 mb)
Winds: from the SSE (160 degrees) at 6 MPH (5 knots; 2.6 m/s)
gusting to 15 MPH (13 knots; 6.7 m/s)
Visibility: 0.62 miles (1.00 km)
Ceiling: 7000 feet AGL
Clouds: scattered clouds at 1500 feet AGL
overcast cloud deck at 7000 feet AGL
Weather: TSRA  (rain associated with thunderstorm(s))

METAR text: NGTA 210100Z 15007KT 9000 3000NW -SHRA FEW016CB OVC080 26/25 Q1 008 RERA RMK RR 8.4MM
Conditions at: NGTA (TARAWA KIRIBATI , FJ) observed 0100 UTC 21 February 2019
Temperature: 26.0°C (79°F)
Dewpoint: 25.0°C (77°F) [RH = 94%]
Pressure (altimeter): missing
Winds: from the SSE (150 degrees) at 8 MPH (7 knots; 3.6 m/s)
Visibility: 6 miles ( 9 km)
Ceiling: 8000 feet AGL
Clouds: few clouds at 1600 feet AGL
overcast cloud deck at 8000 feet AGL
Weather: -SHRA  (light rain showers)

METAR text: NGTA 210000Z 06007KT 9000 -SHRA FEW016CB FEW018TCU OVC080 27/26 Q1009 RERA RMK RR 1.8MM
Conditions at: NGTA (TARAWA KIRIBATI , FJ) observed 0000 UTC 21 February 2019
Temperature: 27.0°C (81°F)
Dewpoint: 26.0°C (79°F) [RH = 94%]
Pressure (altimeter): 29.79 inches Hg (1009.0 mb)
Winds: from the ENE (60 degrees) at 8 MPH (7 knots; 3.6 m/s)
Visibility: 6 miles ( 9 km)
Ceiling: 8000 feet AGL
Clouds: few clouds at 1600 feet AGL
few clouds at 1800 feet AGL
overcast cloud deck at 8000 feet AGL
Weather: -SHRA  (light rain showers)

METAR text: NGTA 202330Z 03010KT 3000 -RA FEW015CB SCT018TCU OVC080 27/26 Q1009 RERA RMK RR 7.3MM
Conditions at: NGTA (TARAWA KIRIBATI , FJ) observed 2330 UTC 20 February 2019
Temperature: 27.0°C (81°F)
Dewpoint: 26.0°C (79°F) [RH = 94%]
Pressure (altimeter): 29.79 inches Hg (1009.0 mb)
Winds: from the NNE (30 degrees) at 12 MPH (10 knots; 5.1 m/s)
Visibility: 1.86 miles (2.99 km)
Ceiling: 8000 feet AGL
Clouds: few clouds at 1500 feet AGL
scattered clouds at 1800 feet AGL
overcast cloud deck at 8000 feet AGL
Weather: -RA  (light rain)

METAR text: NGTA 202300Z 22009KT 1000 +RA FEW010CB SCT035 OVC070 26/25 Q1010 RERA RMK RR 24.0MM
Conditions at: NGTA (TARAWA KIRIBATI , FJ) observed 2300 UTC 20 February 2019
Temperature: 26.0°C (79°F)
Dewpoint: 25.0°C (77°F) [RH = 94%]
Pressure (altimeter): 29.82 inches Hg (1010.0 mb)
Winds: from the SW (220 degrees) at 10 MPH (9 knots; 4.6 m/s)
Visibility: 0.62 miles (1.00 km)
Ceiling: 7000 feet AGL
Clouds: few clouds at 1000 feet AGL
scattered clouds at 3500 feet AGL
overcast cloud deck at 7000 feet AGL
Weather: +RA  (heavy rain)

METAR text: NGTA COR 202240Z 10013G23KT 1500 -RA FEW010CB OVC070 26/25 Q1010 RERA RMK RR 3.0MM
Conditions at: NGTA (TARAWA KIRIBATI , FJ) observed 2240 UTC 20 February 2019
Temperature: 26.0°C (79°F)
Dewpoint: 25.0°C (77°F) [RH = 94%]
Pressure (altimeter): 29.82 inches Hg (1010.0 mb)
Winds: from the E (100 degrees) at 15 MPH (13 knots; 6.7 m/s)
gusting to 26 MPH (23 knots; 11.8 m/s)
Visibility: 0.93 miles (1.50 km)
Ceiling: 7000 feet AGL
Clouds: few clouds at 1000 feet AGL
overcast cloud deck at 7000 feet AGL
Weather: -RA  (light rain)

METAR text: NGTA 202230Z 09010G22KT 5000 SHRA FEW015CB SCT035 OVC080 26/25 Q1010
Conditions at: NGTA (TARAWA KIRIBATI , FJ) observed 2230 UTC 20 February 2019
Temperature: 26.0°C (79°F)
Dewpoint: 25.0°C (77°F) [RH = 94%]
Pressure (altimeter): 29.82 inches Hg (1010.0 mb)
Winds: from the E (90 degrees) at 12 MPH (10 knots; 5.1 m/s)
gusting to 25 MPH (22 knots; 11.3 m/s)
Visibility: 3 miles ( 5 km)
Ceiling: 8000 feet AGL
Clouds: few clouds at 1500 feet AGL
scattered clouds at 3500 feet AGL
overcast cloud deck at 8000 feet AGL
Weather: SHRA  (rain showers)

METAR text: NGTA 212200Z 10014G24KT 6000 -SHRA FEW015CB OVC080 26/25 Q1009
Conditions at: NGTA (TARAWA KIRIBATI , FJ) observed 2200 UTC 20 February 2019
Temperature: 26.0°C (79°F)
Dewpoint: 25.0°C (77°F) [RH = 94%]
Pressure (altimeter): 29.79 inches Hg (1009.0 mb)
Winds: from the E (100 degrees) at 16 MPH (14 knots; 7.2 m/s)
gusting to 28 MPH (24 knots; 12.3 m/s)
Visibility: 4 miles ( 6 km)
Ceiling: 8000 feet AGL
Clouds: few clouds at 1500 feet AGL
overcast cloud deck at 8000 feet AGL
Weather: -SHRA  (light rain showers)

METAR text: NGTA 202140Z 10013G25KT 7000 -SHRA SCT015CB FEW018TCU OVC100 28/26 Q1010
Conditions at: NGTA (TARAWA KIRIBATI , FJ) observed 2140 UTC 20 February 2019
Temperature: 28.0°C (82°F)
Dewpoint: 26.0°C (79°F) [RH = 89%]
Pressure (altimeter): 29.82 inches Hg (1010.0 mb)
Winds: from the E (100 degrees) at 15 MPH (13 knots; 6.7 m/s)
gusting to 29 MPH (25 knots; 12.9 m/s)
Visibility: 4 miles ( 7 km)
Ceiling: 10000 feet AGL
Clouds: scattered clouds at 1500 feet AGL
few clouds at 1800 feet AGL
overcast cloud deck at 10000 feet AGL
Weather: -SHRA  (light rain showers)

METAR text: NGTA 202100Z 05012KT 9999 9000S VCSH FEW016CB FEW018TCU BKN300 29/24 Q1009
Conditions at: NGTA (TARAWA KIRIBATI , FJ) observed 2100 UTC 20 February 2019
Temperature: 29.0°C (84°F)
Dewpoint: 24.0°C (75°F) [RH = 74%]
Pressure (altimeter): 29.79 inches Hg (1009.0 mb)
Winds: from the NE (50 degrees) at 14 MPH (12 knots; 6.2 m/s)
Visibility: 6 or more miles (10+ km)
Ceiling: 30000 feet AGL
Clouds: few clouds at 1600 feet AGL
few clouds at 1800 feet AGL
broken clouds at 30000 feet AGL
Weather: VCSH  (showers in vicinity)

METAR text: NGTA 202000Z 04011KT 9999 VCSH FEW016CB SCT040 BKN300 28/24 Q1008
Conditions at: NGTA (TARAWA KIRIBATI , FJ) observed 2000 UTC 20 February 2019
Temperature: 28.0°C (82°F)
Dewpoint: 24.0°C (75°F) [RH = 79%]
Pressure (altimeter): 29.76 inches Hg (1008.0 mb)
Winds: from the NE (40 degrees) at 13 MPH (11 knots; 5.7 m/s)
Visibility: 6 or more miles (10+ km)
Ceiling: 30000 feet AGL
Clouds: few clouds at 1600 feet AGL
scattered clouds at 4000 feet AGL
broken clouds at 30000 feet AGL
Weather: VCSH  (showers in vicinity)

METAR text: NGTA 201900Z 04010KT 9999 -SHRA FEW016CB OVC300 29/26 Q1008 RETS
Conditions at: NGTA (TARAWA KIRIBATI , FJ) observed 1900 UTC 20 February 2019
Temperature: 29.0°C (84°F)
Dewpoint: 26.0°C (79°F) [RH = 84%]
Pressure (altimeter): 29.76 inches Hg (1008.0 mb)
Winds: from the NE (40 degrees) at 12 MPH (10 knots; 5.1 m/s)
Visibility: 6 or more miles (10+ km)
Ceiling: 30000 feet AGL
Clouds: few clouds at 1600 feet AGL
overcast cloud deck at 30000 feet AGL
Weather: -SHRA  (light rain showers)

METAR text: NGTA 201800Z 02012KT 9999 TS SCT015CB SCT019 BKN040 29/26 Q1007
Conditions at: NGTA (TARAWA KIRIBATI , FJ) observed 1800 UTC 20 February 2019
Temperature: 29.0°C (84°F)
Dewpoint: 26.0°C (79°F) [RH = 84%]
Pressure (altimeter): 29.73 inches Hg (1007.0 mb)
Winds: from the NNE (20 degrees) at 14 MPH (12 knots; 6.2 m/s)
Visibility: 6 or more miles (10+ km)
Ceiling: 4000 feet AGL
Clouds: scattered clouds at 1500 feet AGL
scattered clouds at 1900 feet AGL
broken clouds at 4000 feet AGL
Weather: TS  (thunderstorm)

METAR text: NGTA 201700Z 05012KT 9999 VCSH FEW016CB SCT018TCU BKN040 29/26 Q1006 RMK CB ? SHRS AT S
Conditions at: NGTA (TARAWA KIRIBATI , FJ) observed 1700 UTC 20 February 2019
Temperature: 29.0°C (84°F)
Dewpoint: 26.0°C (79°F) [RH = 84%]
Pressure (altimeter): 29.70 inches Hg (1006.0 mb)
Winds: from the NE (50 degrees) at 14 MPH (12 knots; 6.2 m/s)
Visibility: 6 or more miles (10+ km)
Ceiling: 4000 feet AGL
Clouds: few clouds at 1600 feet AGL
scattered clouds at 1800 feet AGL
broken clouds at 4000 feet AGL
Weather: VCSH  (showers in vicinity)

METAR text: NGTA 201600Z 06009KT 9999 VCSH FEW016CB SCT019 BKN040 29/26 Q1006 RMK CB ? SHRS AT NE
Conditions at: NGTA (TARAWA KIRIBATI , FJ) observed 1600 UTC 20 February 2019
Temperature: 29.0°C (84°F)
Dewpoint: 26.0°C (79°F) [RH = 84%]
Pressure (altimeter): 29.70 inches Hg (1006.0 mb)
Winds: from the ENE (60 degrees) at 10 MPH (9 knots; 4.6 m/s)
Visibility: 6 or more miles (10+ km)
Ceiling: 4000 feet AGL
Clouds: few clouds at 1600 feet AGL
scattered clouds at 1900 feet AGL
broken clouds at 4000 feet AGL
Weather: VCSH  (showers in vicinity)

METAR text: NGTA 201500Z 03010KT 9999 FEW018TCU SCT019 BKN040 29/26 Q1007
Conditions at: NGTA (TARAWA KIRIBATI , FJ) observed 1500 UTC 20 February 2019
Temperature: 29.0°C (84°F)
Dewpoint: 26.0°C (79°F) [RH = 84%]
Pressure (altimeter): 29.73 inches Hg (1007.0 mb)
Winds: from the NNE (30 degrees) at 12 MPH (10 knots; 5.1 m/s)
Visibility: 6 or more miles (10+ km)
Ceiling: 4000 feet AGL
Clouds: few clouds at 1800 feet AGL
scattered clouds at 1900 feet AGL
broken clouds at 4000 feet AGL
Weather: no significant weather observed at this time

METAR text: NGTA 201400Z 04008KT 9999 FEW018TCU SCT019 29/25 Q1007
Conditions at: NGTA (TARAWA KIRIBATI , FJ) observed 1400 UTC 20 February 2019
Temperature: 29.0°C (84°F)
Dewpoint: 25.0°C (77°F) [RH = 79%]
Pressure (altimeter): 29.73 inches Hg (1007.0 mb)
Winds: from the NE (40 degrees) at 9 MPH (8 knots; 4.1 m/s)
Visibility: 6 or more miles (10+ km)
Ceiling: at least 12,000 feet AGL
Clouds: few clouds at 1800 feet AGL
scattered clouds at 1900 feet AGL
Weather: no significant weather observed at this time

Forecast for: NGTA (TARAWA KIRIBATI , FJ)
Text: TAF NGTA 212315Z 2200/2224 32007KT 9999 -SHRA SCT018 SCT040 OVC100
Forecast period: 0000 UTC 22 February 2019 to 0000 UTC 23 February 2019
Forecast type: FROM: standard forecast or significant change
Winds: from the NW (320 degrees) at 8 MPH (7 knots; 3.6 m/s)
Visibility: 6 or more miles 10+ km)
Ceiling: 10000 feet AGL
Clouds: scattered clouds at 1800 feet AGL
scattered clouds at 4000 feet AGL
overcast cloud deck at 10000 feet AGL
Weather: -SHRA  (light rain showers)
Text: PROB40
Forecast period: 0000 to 0600 UTC 22 February 2019
Forecast type: TEMPORARY: The following changes expected for less than half the time period
Winds: from the NNW (330 degrees) at 17 MPH (15 knots; 7.7 m/s)
gusting to 29 MPH (25 knots; 12.9 m/s)
Visibility: 1.24 miles (2.00 km)
Ceiling: 1500 feet AGL
Clouds: broken clouds at 1500 feet AGL
few clouds at 1800 feet AGL
Weather: +TSRA  (heavy rain associated with thunderstorm(s))
Text: TEMPO 2200/2206 33015G25KT 2000 +TSRA BKN015 FEW018CB
Forecast period: 0600 to 1200 UTC 22 February 2019
Forecast type: TEMPORARY: The following changes expected for less than half the time period
Visibility: 1.86 miles (2.99 km)
Ceiling: 1500 feet AGL
Clouds: broken clouds at 1500 feet AGL
few clouds at 1800 feet AGL
Weather: TSRA  (rain associated with thunderstorm(s))